createdAt,value
2022-10-11T00:01:25.181Z,95.40
2022-10-11T00:03:52.005Z,95.00
2022-10-11T00:06:18.695Z,94.70
2022-10-11T00:08:45.397Z,94.50
2022-10-11T00:11:12.175Z,94.40
2022-10-11T00:13:38.977Z,94.40
2022-10-11T00:16:11.212Z,94.20
2022-10-11T00:18:38.980Z,94.30
2022-10-11T00:21:08.299Z,94.60
2022-10-11T00:23:36.238Z,94.60
2022-10-11T00:26:06.197Z,94.70
2022-10-11T00:28:33.918Z,94.80
2022-10-11T00:31:00.987Z,94.80
2022-10-11T00:33:28.253Z,94.80
2022-10-11T00:35:54.966Z,95.10
2022-10-11T00:38:21.820Z,95.10
2022-10-11T00:40:48.545Z,95.10
2022-10-11T00:43:21.744Z,95.00
2022-10-11T00:45:57.641Z,95.20
2022-10-11T00:48:27.738Z,95.30
2022-10-11T00:50:58.151Z,95.50
2022-10-11T00:53:26.059Z,95.80
2022-10-11T00:56:14.583Z,96.10
2022-10-11T00:58:42.082Z,97.00
2022-10-11T01:01:09.023Z,96.60
2022-10-11T01:03:37.955Z,96.70
2022-10-11T01:06:05.289Z,96.80
2022-10-11T01:08:32.591Z,96.50
2022-10-11T01:10:59.566Z,96.70
2022-10-11T01:13:53.778Z,97.00
2022-10-11T01:16:38.496Z,96.90
2022-10-11T01:19:40.102Z,96.60
2022-10-11T01:22:44.310Z,96.80
2022-10-11T01:25:23.070Z,96.80
2022-10-11T01:28:01.575Z,96.70
2022-10-11T01:30:31.631Z,96.80
2022-10-11T01:33:09.252Z,97.00
2022-10-11T01:35:54.108Z,97.40
2022-10-11T01:38:57.244Z,97.60
2022-10-11T01:41:28.987Z,98.00
2022-10-11T01:43:59.512Z,98.40
2022-10-11T01:46:28.308Z,98.90
2022-10-11T01:48:57.797Z,99.00
2022-10-11T01:51:32.059Z,99.30
2022-10-11T01:54:10.816Z,99.50
2022-10-11T01:57:08.591Z,99.50
2022-10-11T01:59:41.486Z,99.30
2022-10-11T02:02:53.009Z,99.40
2022-10-11T02:05:38.707Z,99.50
2022-10-11T02:08:15.266Z,99.90
2022-10-11T02:10:58.550Z,99.90
2022-10-11T02:13:31.466Z,99.90
2022-10-11T02:16:03.932Z,99.90
2022-10-11T02:18:36.116Z,99.90
2022-10-11T02:21:06.518Z,99.90
2022-10-11T02:23:55.852Z,99.90
2022-10-11T02:26:24.843Z,99.90
2022-10-11T02:28:55.870Z,99.10
2022-10-11T02:31:24.383Z,98.90
2022-10-11T02:34:05.242Z,98.70
2022-10-11T02:36:43.014Z,98.60
2022-10-11T02:39:17.746Z,98.40
2022-10-11T02:41:46.488Z,98.10
2022-10-11T02:44:23.174Z,98.00
2022-10-11T02:46:51.173Z,98.10
2022-10-11T02:49:19.783Z,98.10
2022-10-11T02:51:46.462Z,99.90
2022-10-11T02:54:13.204Z,99.90
2022-10-11T02:56:39.907Z,99.90
2022-10-11T02:59:06.621Z,99.90
2022-10-11T03:01:33.387Z,99.90
2022-10-11T03:04:00.213Z,99.90
2022-10-11T03:06:26.959Z,99.90
2022-10-11T03:08:53.638Z,99.90
2022-10-11T03:11:20.357Z,99.90
2022-10-11T03:13:47.061Z,99.90
2022-10-11T03:16:14.279Z,99.90
2022-10-11T03:18:41.566Z,99.90
2022-10-11T03:21:08.317Z,99.90
2022-10-11T03:23:35.093Z,99.90
2022-10-11T03:26:02.118Z,99.90
2022-10-11T03:28:29.397Z,99.90
2022-10-11T03:30:56.109Z,99.90
2022-10-11T03:33:22.877Z,99.90
2022-10-11T03:35:50.318Z,99.70
2022-10-11T03:38:20.567Z,99.30
2022-10-11T03:40:48.009Z,99.20
2022-10-11T03:43:14.959Z,99.00
2022-10-11T03:45:44.622Z,98.70
2022-10-11T03:48:11.805Z,98.60
2022-10-11T03:50:38.872Z,98.50
2022-10-11T03:53:06.838Z,98.60
2022-10-11T03:55:33.681Z,98.90
2022-10-11T03:58:00.691Z,98.80
2022-10-11T04:00:27.445Z,98.90
2022-10-11T04:02:54.256Z,98.90
2022-10-11T04:05:21.011Z,99.10
2022-10-11T04:07:47.707Z,99.90
2022-10-11T04:10:14.417Z,99.40
2022-10-11T04:12:41.280Z,99.90
2022-10-11T04:15:08.670Z,99.50
2022-10-11T04:17:35.406Z,99.10
2022-10-11T04:20:02.083Z,99.00
2022-10-11T04:22:28.800Z,98.60
2022-10-11T04:24:55.543Z,98.60
2022-10-11T04:27:22.322Z,98.40
2022-10-11T04:29:49.035Z,98.20
2022-10-11T04:32:15.725Z,98.30
2022-10-11T04:34:42.466Z,98.30
2022-10-11T04:37:09.204Z,98.80
2022-10-11T04:39:36.157Z,98.90
2022-10-11T04:42:02.959Z,99.30
2022-10-11T04:44:30.044Z,99.40
2022-10-11T04:46:56.896Z,99.40
2022-10-11T04:49:23.809Z,99.60
2022-10-11T04:51:50.640Z,99.90
2022-10-11T04:54:17.709Z,99.90
2022-10-11T04:56:44.459Z,99.90
2022-10-11T04:59:11.741Z,99.90
2022-10-11T05:01:38.544Z,99.90
2022-10-11T05:04:05.530Z,99.90
2022-10-11T05:06:32.292Z,99.90
2022-10-11T05:08:59.011Z,99.90
2022-10-11T05:11:25.717Z,99.90
2022-10-11T05:13:52.427Z,99.90
2022-10-11T05:16:19.154Z,99.90
2022-10-11T05:18:45.893Z,99.90
2022-10-11T05:21:24.087Z,99.90
2022-10-11T05:23:52.432Z,99.90
2022-10-11T05:26:20.739Z,99.90
2022-10-11T05:28:48.107Z,99.90
2022-10-11T05:31:16.289Z,99.90
2022-10-11T05:33:43.374Z,99.90
2022-10-11T05:36:10.614Z,99.90
2022-10-11T05:38:38.229Z,99.90
2022-10-11T05:41:06.866Z,99.90
2022-10-11T05:43:33.577Z,99.90
2022-10-11T05:46:00.285Z,99.90
2022-10-11T05:48:28.441Z,99.90
2022-10-11T05:51:03.203Z,99.90
2022-10-11T05:53:30.055Z,99.90
2022-10-11T05:55:57.527Z,99.90
2022-10-11T05:58:24.459Z,99.90
2022-10-11T06:00:51.249Z,99.90
2022-10-11T06:03:18.010Z,99.90
2022-10-11T06:05:44.711Z,99.90
2022-10-11T06:08:11.531Z,99.90
2022-10-11T06:10:38.942Z,99.90
2022-10-11T06:13:06.892Z,99.90
2022-10-11T06:15:34.049Z,99.90
2022-10-11T06:18:00.849Z,99.90
2022-10-11T06:20:27.840Z,99.90
2022-10-11T06:22:54.692Z,99.90
2022-10-11T06:25:21.562Z,99.90
2022-10-11T06:27:48.284Z,99.90
2022-10-11T06:30:15.157Z,99.90
2022-10-11T06:32:41.857Z,99.90
2022-10-11T06:35:08.999Z,99.90
2022-10-11T06:37:36.052Z,99.90
2022-10-11T06:40:03.601Z,99.90
2022-10-11T06:42:30.303Z,99.90
2022-10-11T06:44:57.025Z,99.90
2022-10-11T06:47:23.759Z,99.90
2022-10-11T06:49:50.562Z,99.90
2022-10-11T06:52:17.273Z,99.90
2022-10-11T06:54:44.981Z,99.90
2022-10-11T06:57:12.240Z,99.90
2022-10-11T06:59:39.049Z,99.90
2022-10-11T07:02:06.791Z,99.90
2022-10-11T07:04:33.950Z,99.90
2022-10-11T07:07:01.023Z,99.90
2022-10-11T07:09:28.108Z,99.90
2022-10-11T07:11:54.832Z,99.90
2022-10-11T07:14:21.625Z,99.90
2022-10-11T07:16:48.405Z,99.90
2022-10-11T07:19:15.254Z,99.90
2022-10-11T07:21:42.071Z,99.90
2022-10-11T07:24:08.888Z,99.90
2022-10-11T07:26:38.800Z,99.90
2022-10-11T07:29:08.278Z,99.90
2022-10-11T07:31:37.697Z,99.90
2022-10-11T07:34:04.468Z,99.90
2022-10-11T07:36:31.176Z,99.90
2022-10-11T07:38:58.029Z,99.90
2022-10-11T07:41:24.795Z,99.90
2022-10-11T07:43:51.635Z,99.90
2022-10-11T07:46:18.713Z,99.90
2022-10-11T07:48:45.739Z,99.90
2022-10-11T07:51:18.944Z,99.90
2022-10-11T07:53:48.140Z,99.90
2022-10-11T07:56:17.799Z,99.90
2022-10-11T07:58:44.867Z,99.90
2022-10-11T08:01:12.225Z,99.90
2022-10-11T08:03:39.228Z,99.90
2022-10-11T08:06:09.137Z,99.90
2022-10-11T08:08:37.001Z,99.90
2022-10-11T08:11:04.023Z,99.90
2022-10-11T08:13:30.906Z,99.90
2022-10-11T08:15:58.341Z,99.90
2022-10-11T08:18:25.203Z,99.90
2022-10-11T08:20:52.095Z,99.90
2022-10-11T08:23:19.387Z,99.90
2022-10-11T08:25:47.312Z,99.90
2022-10-11T08:28:17.312Z,99.90
2022-10-11T08:30:52.159Z,99.90
2022-10-11T08:33:19.542Z,99.90
2022-10-11T08:35:46.680Z,99.90
2022-10-11T08:38:14.013Z,99.90
2022-10-11T08:40:51.128Z,99.90
2022-10-11T08:43:45.627Z,99.90
2022-10-11T08:46:14.882Z,99.90
2022-10-11T08:48:46.000Z,99.90
2022-10-11T08:51:19.543Z,99.90
2022-10-11T08:54:08.001Z,99.90
2022-10-11T08:56:39.821Z,99.90
2022-10-11T08:59:12.814Z,99.90
2022-10-11T09:02:15.060Z,99.90
2022-10-11T09:04:41.876Z,99.90
2022-10-11T09:07:32.071Z,99.90
2022-10-11T09:10:03.761Z,99.90
2022-10-11T09:13:02.110Z,99.90
2022-10-11T09:15:57.571Z,99.90
2022-10-11T09:18:30.330Z,99.90
2022-10-11T09:21:25.485Z,99.90
2022-10-11T09:24:10.868Z,99.90
2022-10-11T09:27:01.456Z,99.90
2022-10-11T09:30:08.212Z,99.90
2022-10-11T09:32:41.073Z,99.90
2022-10-11T09:35:21.828Z,99.90
2022-10-11T09:37:57.689Z,99.90
2022-10-11T09:41:00.572Z,99.90
2022-10-11T09:43:27.400Z,99.90
2022-10-11T09:45:54.189Z,99.90
2022-10-11T09:48:24.974Z,99.90
2022-10-11T09:50:54.489Z,99.90
2022-10-11T09:53:56.306Z,99.90
2022-10-11T09:56:25.702Z,99.90
2022-10-11T09:59:10.345Z,99.90
2022-10-11T10:01:37.461Z,99.90
2022-10-11T10:04:11.293Z,99.90
2022-10-11T10:06:38.790Z,99.90
2022-10-11T10:09:30.070Z,99.90
2022-10-11T10:11:58.035Z,99.90
2022-10-11T10:14:28.977Z,99.90
2022-10-11T10:17:03.972Z,99.90
2022-10-11T10:19:44.527Z,99.90
2022-10-11T10:22:20.163Z,99.90
2022-10-11T10:24:49.064Z,99.90
2022-10-11T10:27:25.623Z,99.70
2022-10-11T10:30:04.429Z,98.60
2022-10-11T10:32:35.063Z,98.60
2022-10-11T10:35:29.032Z,98.30
2022-10-11T10:38:17.804Z,98.10
2022-10-11T10:40:58.230Z,98.20
2022-10-11T10:43:28.814Z,97.90
2022-10-11T10:46:20.591Z,96.70
2022-10-11T10:49:52.519Z,96.80
2022-10-11T10:52:31.488Z,97.00
2022-10-11T10:55:22.938Z,96.50
2022-10-11T10:58:07.205Z,96.50
2022-10-11T11:01:02.897Z,96.30
2022-10-11T11:03:42.064Z,96.00
2022-10-11T11:06:18.495Z,95.20
2022-10-11T11:08:51.101Z,94.80
2022-10-11T11:11:45.252Z,94.40
2022-10-11T11:14:23.400Z,93.90
2022-10-11T11:17:15.659Z,92.50
2022-10-11T11:20:06.714Z,91.90
2022-10-11T11:22:53.447Z,91.90
2022-10-11T11:25:46.674Z,92.30
2022-10-11T11:28:48.435Z,92.10
2022-10-11T11:31:26.896Z,91.20
2022-10-11T11:34:31.414Z,90.80
2022-10-11T11:37:38.573Z,90.80
2022-10-11T11:40:18.309Z,90.00
2022-10-11T11:42:55.633Z,90.00
2022-10-11T11:45:29.349Z,89.00
2022-10-11T11:48:18.612Z,88.90
2022-10-11T11:50:55.267Z,88.20
2022-10-11T11:53:43.397Z,86.40
2022-10-11T11:56:23.315Z,87.80
2022-10-11T11:59:11.985Z,87.60
2022-10-11T12:02:01.604Z,86.50
2022-10-11T12:04:41.620Z,85.40
2022-10-11T12:07:17.114Z,85.10
2022-10-11T12:09:51.748Z,84.00
2022-10-11T12:12:37.252Z,84.60
2022-10-11T12:15:06.789Z,84.90
2022-10-11T12:17:33.635Z,85.20
2022-10-11T12:20:20.961Z,82.40
2022-10-11T12:22:52.238Z,80.50
2022-10-11T12:25:22.041Z,78.00
2022-10-11T12:27:52.549Z,76.70
2022-10-11T12:30:44.097Z,77.00
2022-10-11T12:33:22.196Z,76.20
2022-10-11T12:35:54.821Z,74.70
2022-10-11T12:38:30.878Z,73.90
2022-10-11T12:41:09.339Z,73.50
2022-10-11T12:43:47.957Z,72.60
2022-10-11T12:46:29.573Z,71.70
2022-10-11T12:49:17.254Z,71.20
2022-10-11T12:51:53.958Z,69.10
2022-10-11T12:55:04.374Z,68.20
2022-10-11T12:58:15.266Z,68.40
2022-10-11T13:00:51.654Z,67.20
2022-10-11T13:03:33.114Z,66.40
2022-10-11T13:06:09.377Z,65.90
2022-10-11T13:08:40.205Z,66.10
2022-10-11T13:11:11.598Z,65.80
2022-10-11T13:13:54.076Z,65.60
2022-10-11T13:16:27.244Z,65.50
2022-10-11T13:18:58.253Z,63.70
2022-10-11T13:21:32.878Z,63.20
2022-10-11T13:24:02.347Z,64.50
2022-10-11T13:26:31.284Z,65.60
2022-10-11T13:29:00.161Z,63.60
2022-10-11T13:31:27.395Z,63.20
2022-10-11T13:33:57.459Z,61.30
2022-10-11T13:36:27.238Z,59.90
2022-10-11T13:39:00.141Z,58.80
2022-10-11T13:41:29.412Z,59.10
2022-10-11T13:43:58.232Z,59.40
2022-10-11T13:46:27.901Z,59.10
2022-10-11T13:49:03.639Z,58.40
2022-10-11T13:51:37.862Z,57.40
2022-10-11T13:54:05.889Z,56.00
2022-10-11T13:56:52.783Z,55.80
2022-10-11T13:59:24.883Z,54.10
2022-10-11T14:02:00.089Z,53.00
2022-10-11T14:04:29.711Z,53.10
2022-10-11T14:07:02.971Z,53.80
2022-10-11T14:09:38.389Z,53.60
2022-10-11T14:12:28.898Z,53.80
2022-10-11T14:14:55.697Z,53.70
2022-10-11T14:17:38.591Z,53.50
2022-10-11T14:20:11.877Z,50.80
2022-10-11T14:22:39.082Z,51.10
2022-10-11T14:25:06.193Z,51.70
2022-10-11T14:27:33.005Z,52.10
2022-10-11T14:30:24.081Z,51.80
2022-10-11T14:32:49.877Z,50.90
2022-10-11T14:35:24.300Z,51.00
2022-10-11T14:37:51.760Z,51.30
2022-10-11T14:40:21.852Z,51.50
2022-10-11T14:42:49.081Z,50.80
2022-10-11T14:45:16.922Z,49.40
2022-10-11T14:47:44.128Z,49.80
2022-10-11T14:50:28.360Z,49.10
2022-10-11T14:52:55.940Z,49.30
2022-10-11T14:55:23.123Z,49.00
2022-10-11T14:57:49.932Z,49.00
2022-10-11T15:00:23.049Z,48.70
2022-10-11T15:02:52.635Z,48.70
2022-10-11T15:05:20.193Z,49.10
2022-10-11T15:07:47.525Z,49.50
2022-10-11T15:10:24.913Z,49.30
2022-10-11T15:12:53.772Z,49.70
2022-10-11T15:15:23.423Z,49.80
2022-10-11T15:17:53.599Z,49.60
2022-10-11T15:20:30.274Z,49.80
2022-10-11T15:22:57.756Z,50.40
2022-10-11T15:25:24.977Z,50.60
2022-10-11T15:27:52.449Z,50.20
2022-10-11T15:30:23.194Z,50.00
2022-10-11T15:32:50.703Z,49.80
2022-10-11T15:35:17.959Z,49.50
2022-10-11T15:37:45.012Z,49.70
2022-10-11T15:40:17.973Z,48.60
2022-10-11T15:42:44.890Z,48.60
2022-10-11T15:45:12.217Z,49.00
2022-10-11T15:47:38.978Z,49.20
2022-10-11T15:50:33.623Z,49.10
2022-10-11T15:53:02.718Z,49.30
2022-10-11T15:55:30.617Z,49.50
2022-10-11T15:57:57.502Z,50.00
2022-10-11T16:00:25.913Z,50.30
2022-10-11T16:02:53.658Z,50.60
2022-10-11T16:05:21.994Z,51.00
2022-10-11T16:07:48.760Z,51.20
2022-10-11T16:10:15.728Z,51.30
2022-10-11T16:12:42.997Z,51.50
2022-10-11T16:15:10.276Z,52.40
2022-10-11T16:17:37.267Z,53.40
2022-10-11T16:20:06.921Z,53.60
2022-10-11T16:22:36.989Z,54.00
2022-10-11T16:25:04.784Z,53.50
2022-10-11T16:27:32.158Z,54.40
2022-10-11T16:30:00.374Z,55.40
2022-10-11T16:32:27.993Z,56.00
2022-10-11T16:34:54.748Z,56.30
2022-10-11T16:37:21.533Z,56.90
2022-10-11T16:39:48.239Z,57.50
2022-10-11T16:42:15.023Z,58.10
2022-10-11T16:44:41.776Z,58.80
2022-10-11T16:47:08.611Z,58.90
2022-10-11T16:49:35.384Z,59.30
2022-10-11T16:52:03.846Z,59.70
2022-10-11T16:54:31.640Z,60.00
2022-10-11T16:56:59.663Z,60.50
2022-10-11T16:59:26.858Z,60.90
2022-10-11T17:01:53.767Z,61.40
2022-10-11T17:04:21.129Z,61.60
2022-10-11T17:06:47.906Z,62.00
2022-10-11T17:09:14.714Z,62.40
2022-10-11T17:11:41.799Z,63.10
2022-10-11T17:14:09.334Z,63.60
2022-10-11T17:16:36.049Z,63.90
2022-10-11T17:19:03.147Z,64.30
2022-10-11T17:21:30.056Z,64.80
2022-10-11T17:23:56.814Z,64.70
2022-10-11T17:26:27.524Z,65.10
2022-10-11T17:28:56.015Z,65.50
2022-10-11T17:31:24.071Z,65.70
2022-10-11T17:33:51.120Z,66.00
2022-10-11T17:36:31.681Z,66.20
2022-10-11T17:39:00.805Z,66.60
2022-10-11T17:41:31.781Z,66.80
2022-10-11T17:43:59.483Z,67.20
2022-10-11T17:46:28.042Z,67.70
2022-10-11T17:48:55.560Z,68.00
2022-10-11T17:51:22.690Z,68.30
2022-10-11T17:53:52.941Z,68.60
2022-10-11T17:56:28.116Z,68.90
2022-10-11T17:58:57.122Z,69.20
2022-10-11T18:01:28.956Z,69.40
2022-10-11T18:04:01.494Z,69.90
2022-10-11T18:06:31.434Z,70.20
2022-10-11T18:09:01.880Z,70.50
2022-10-11T18:11:29.334Z,70.90
2022-10-11T18:13:56.129Z,70.90
2022-10-11T18:16:26.960Z,71.40
2022-10-11T18:18:57.196Z,71.80
2022-10-11T18:21:28.779Z,72.00
2022-10-11T18:24:05.150Z,72.30
2022-10-11T18:26:32.109Z,72.70
2022-10-11T18:28:59.225Z,73.20
2022-10-11T18:31:29.853Z,73.40
2022-10-11T18:33:57.729Z,73.40
2022-10-11T18:36:26.975Z,73.60
2022-10-11T18:38:56.314Z,74.20
2022-10-11T18:41:30.426Z,74.50
2022-10-11T18:44:00.049Z,74.80
2022-10-11T18:46:27.801Z,75.00
2022-10-11T18:48:56.367Z,75.20
2022-10-11T18:51:25.431Z,75.70
2022-10-11T18:53:52.839Z,76.20
2022-10-11T18:56:22.943Z,76.40
2022-10-11T18:58:50.913Z,76.60
2022-10-11T19:01:26.876Z,77.10
2022-10-11T19:03:56.649Z,77.40
2022-10-11T19:06:26.512Z,77.50
2022-10-11T19:08:55.490Z,77.70
2022-10-11T19:11:25.145Z,78.00
2022-10-11T19:14:03.388Z,78.20
2022-10-11T19:16:30.608Z,78.40
2022-10-11T19:18:57.795Z,78.40
2022-10-11T19:21:24.646Z,78.60
2022-10-11T19:23:52.009Z,78.80
2022-10-11T19:26:34.232Z,79.20
2022-10-11T19:29:23.247Z,79.10
2022-10-11T19:31:52.381Z,79.60
2022-10-11T19:34:20.063Z,80.10
2022-10-11T19:36:47.101Z,80.50
2022-10-11T19:39:15.349Z,80.60
2022-10-11T19:41:43.046Z,81.00
2022-10-11T19:44:11.047Z,81.30
2022-10-11T19:46:50.894Z,81.70
2022-10-11T19:49:22.354Z,81.80
2022-10-11T19:51:49.089Z,82.00
2022-10-11T19:54:15.982Z,82.30
2022-10-11T19:56:42.753Z,82.50
2022-10-11T19:59:10.995Z,82.70
2022-10-11T20:01:39.700Z,82.70
2022-10-11T20:04:15.355Z,82.70
2022-10-11T20:06:49.672Z,82.80
2022-10-11T20:09:28.990Z,83.10
2022-10-11T20:11:56.576Z,83.20
2022-10-11T20:14:23.381Z,83.40
2022-10-11T20:16:50.755Z,83.70
2022-10-11T20:19:17.639Z,83.80
2022-10-11T20:21:44.904Z,84.80
2022-10-11T20:24:11.703Z,84.80
2022-10-11T20:26:39.203Z,84.50
2022-10-11T20:29:06.339Z,84.70
2022-10-11T20:31:34.935Z,84.90
2022-10-11T20:34:04.161Z,85.00
2022-10-11T20:36:32.139Z,85.40
2022-10-11T20:39:00.046Z,85.60
2022-10-11T20:41:31.523Z,86.40
2022-10-11T20:44:00.246Z,86.40
2022-10-11T20:46:32.531Z,88.00
2022-10-11T20:49:02.313Z,87.20
2022-10-11T20:51:31.119Z,87.20
2022-10-11T20:53:59.075Z,87.20
2022-10-11T20:56:26.718Z,87.20
2022-10-11T20:58:55.344Z,87.40
2022-10-11T21:01:26.316Z,87.80
2022-10-11T21:03:53.152Z,87.90
2022-10-11T21:06:20.484Z,87.50
2022-10-11T21:08:47.243Z,88.00
2022-10-11T21:11:14.178Z,88.40
2022-10-11T21:13:41.992Z,88.40
2022-10-11T21:16:14.839Z,88.40
2022-10-11T21:18:42.109Z,88.40
2022-10-11T21:21:11.348Z,88.70
2022-10-11T21:23:38.508Z,89.00
2022-10-11T21:26:07.834Z,88.80
2022-10-11T21:28:34.748Z,89.10
2022-10-11T21:31:12.637Z,89.00
2022-10-11T21:33:40.503Z,89.00
2022-10-11T21:36:09.859Z,89.10
2022-10-11T21:38:37.507Z,89.30
2022-10-11T21:41:10.621Z,90.40
2022-10-11T21:43:38.364Z,90.40
2022-10-11T21:46:16.206Z,90.20
2022-10-11T21:48:43.012Z,89.50
2022-10-11T21:51:19.250Z,89.00
2022-10-11T21:53:45.995Z,88.70
2022-10-11T21:56:12.705Z,88.50
2022-10-11T21:58:39.657Z,88.40
2022-10-11T22:01:06.477Z,88.40
2022-10-11T22:03:33.349Z,88.40
2022-10-11T22:06:03.653Z,88.60
2022-10-11T22:08:30.575Z,89.20
2022-10-11T22:10:59.652Z,89.70
2022-10-11T22:13:28.014Z,89.70
2022-10-11T22:15:57.626Z,89.80
2022-10-11T22:18:24.902Z,90.10
2022-10-11T22:20:51.816Z,90.20
2022-10-11T22:23:19.158Z,90.10
2022-10-11T22:25:46.162Z,90.20
2022-10-11T22:28:13.117Z,90.10
2022-10-11T22:30:39.915Z,90.30
2022-10-11T22:33:06.607Z,90.40
2022-10-11T22:35:37.517Z,90.60
2022-10-11T22:38:06.248Z,90.80
2022-10-11T22:40:33.242Z,90.90
2022-10-11T22:42:59.975Z,91.00
2022-10-11T22:45:26.766Z,91.10
2022-10-11T22:47:53.461Z,91.10
2022-10-11T22:50:20.209Z,91.30
2022-10-11T22:52:46.885Z,91.40
2022-10-11T22:55:19.013Z,91.50
2022-10-11T22:57:46.747Z,91.40
2022-10-11T23:00:13.795Z,91.60
2022-10-11T23:02:41.108Z,91.60
2022-10-11T23:05:08.083Z,91.70
2022-10-11T23:07:35.276Z,91.80
2022-10-11T23:10:02.449Z,92.00
2022-10-11T23:12:29.158Z,92.10
2022-10-11T23:14:55.946Z,92.20
2022-10-11T23:17:22.767Z,92.20
2022-10-11T23:19:49.590Z,92.10
2022-10-11T23:22:16.522Z,92.20
2022-10-11T23:24:43.272Z,92.10
2022-10-11T23:27:10.002Z,92.00
2022-10-11T23:29:40.070Z,92.00
2022-10-11T23:32:10.849Z,92.10
2022-10-11T23:34:38.047Z,92.00
2022-10-11T23:37:05.753Z,92.00
2022-10-11T23:39:32.750Z,92.00
2022-10-11T23:41:59.477Z,92.00
2022-10-11T23:44:26.182Z,92.10
2022-10-11T23:46:52.886Z,92.20
2022-10-11T23:49:19.745Z,92.30
2022-10-11T23:51:46.673Z,92.30
2022-10-11T23:54:13.498Z,92.40
2022-10-11T23:56:40.247Z,92.70
2022-10-11T23:59:06.995Z,92.70
